16FA weather

Little Deer Airport
Ochopee, Florida, United States

Public forecast

Using degrees Fahrenheit for public forecast. Weather courtesy of forecast.io.

METAR (pilot weather report)

Closest report is Immokalee Regional Airport, 31.1 nm (57.5 km) NW. Retrieved 2019/07/17 03:35 UTC (13 minutes ago):

KIMM 170335Z AUTO 00000KT 10SM CLR 26/25 A3012 RMK AO2 LTG DSNT SW AND W

TAF (pilot weather forecast)

Forecast is more than 12 hours old.

Closest forecast is Kendall-Tamiami Executive Airport, 40.0 nm (74.1 km) SE. Retrieved 2019/07/16 00:33 UTC (1 day ago):

TAF KTMB 162331Z 1700/1724 13005KT P6SM FEW025 SCT250 FM170200 VRB02KT P6SM FEW025 SCT250 FM171500 12010KT P6SM SCT025 SCT060